Time;durP1;ratioP1;P1;durP2;ratioP2;P2;SDS_P1;SDS_P2;PMS_P1;PMS_P2;Temp;Humidity;BMP_temperature;BMP_pressure;BME280_temperature;BME280_humidity;BME280_pressure;Samples;Min_cycle;Max_cycle;Signal;HPM_P1;HPM_P2
2023/12/06 00:01:07;;;;;;;0.20;0.10;;;;;;;5.64;100.00;99531.28;5070508;28;20935;-53
2023/12/06 00:03:34;;;;;;;0.20;0.10;;;;;;;5.62;100.00;99525.19;5073695;28;21052;-52
2023/12/06 00:06:00;;;;;;;0.20;0.10;;;;;;;5.59;100.00;99533.13;5073327;28;20996;-53
2023/12/06 00:08:27;;;;;;;0.20;0.10;;;;;;;5.53;100.00;99528.00;5073386;28;20560;-53
2023/12/06 00:10:54;;;;;;;0.30;0.10;;;;;;;5.44;100.00;99528.16;5053319;28;20459;-53
2023/12/06 00:13:21;;;;;;;0.20;0.20;;;;;;;5.44;100.00;99532.56;5053319;28;21016;-54
2023/12/06 00:15:47;;;;;;;0.20;0.20;;;;;;;5.53;100.00;99537.66;5053394;28;20455;-53
2023/12/06 00:18:14;;;;;;;0.20;0.20;;;;;;;5.50;100.00;99535.97;5063633;28;20906;-53
2023/12/06 00:20:40;;;;;;;0.20;0.20;;;;;;;5.41;100.00;99536.16;5072883;28;20458;-53
2023/12/06 00:23:07;;;;;;;0.20;0.20;;;;;;;5.43;100.00;99539.63;5062333;28;20451;-54
2023/12/06 00:25:33;;;;;;;0.20;0.10;;;;;;;5.41;100.00;99533.50;5058958;28;20556;-53
2023/12/06 00:28:01;;;;;;;0.30;0.20;;;;;;;5.42;100.00;99543.16;5069246;28;20547;-53
2023/12/06 00:30:28;;;;;;;0.20;0.10;;;;;;;5.36;100.00;99540.66;5073016;28;20457;-53
2023/12/06 00:32:55;;;;;;;0.30;0.20;;;;;;;5.46;100.00;99543.94;5072400;28;20442;-53
2023/12/06 00:35:21;;;;;;;0.20;0.20;;;;;;;5.38;100.00;99537.97;5059323;28;20934;-53
2023/12/06 00:37:48;;;;;;;0.20;0.10;;;;;;;5.47;100.00;99545.69;5072838;28;20465;-53
2023/12/06 00:40:14;;;;;;;0.20;0.10;;;;;;;5.42;100.00;99543.16;5072522;28;20541;-53
2023/12/06 00:42:41;;;;;;;0.20;0.20;;;;;;;5.43;100.00;99538.75;5072662;28;20541;-53
2023/12/06 00:45:08;;;;;;;0.20;0.10;;;;;;;5.50;100.00;99548.28;5063386;28;20511;-53
2023/12/06 00:47:36;;;;;;;0.20;0.10;;;;;;;5.45;100.00;99547.47;5072685;28;20466;-56
2023/12/06 00:50:05;;;;;;;0.20;0.10;;;;;;;5.44;100.00;99554.53;5071005;28;20513;-53
2023/12/06 00:52:31;;;;;;;0.20;0.20;;;;;;;5.50;100.00;99553.56;5072557;28;20562;-54
2023/12/06 00:54:58;;;;;;;0.20;0.20;;;;;;;5.46;100.00;99546.59;5072224;28;20954;-53
2023/12/06 00:57:24;;;;;;;0.20;0.20;;;;;;;5.34;100.00;99551.22;5071455;28;21055;-54
2023/12/06 00:59:52;;;;;;;0.20;0.20;;;;;;;5.43;100.00;99555.41;5059498;28;20486;-53
2023/12/06 01:02:19;;;;;;;0.20;0.10;;;;;;;5.42;100.00;99547.56;5072359;28;20907;-53
2023/12/06 01:04:46;;;;;;;0.20;0.10;;;;;;;5.28;100.00;99558.34;5072359;28;20446;-53
2023/12/06 01:07:13;;;;;;;0.20;0.10;;;;;;;5.45;100.00;99555.38;5072049;28;20474;-53
2023/12/06 01:09:40;;;;;;;0.20;0.20;;;;;;;5.51;100.00;99556.16;5072569;28;20450;-53
2023/12/06 01:12:06;;;;;;;0.20;0.10;;;;;;;5.55;100.00;99557.81;5070915;28;20457;-53
2023/12/06 01:14:33;;;;;;;0.20;0.10;;;;;;;5.58;100.00;99562.16;5069775;28;20453;-53
2023/12/06 01:16:59;;;;;;;0.20;0.10;;;;;;;5.59;100.00;99562.13;5072006;28;20551;-57
2023/12/06 01:19:25;;;;;;;0.20;0.10;;;;;;;5.59;100.00;99561.25;5072039;28;20488;-57
2023/12/06 01:21:52;;;;;;;0.20;0.20;;;;;;;5.49;100.00;99568.50;5070724;28;20455;-56
2023/12/06 01:24:19;;;;;;;0.20;0.20;;;;;;;5.49;100.00;99565.88;5058963;28;20450;-56
2023/12/06 01:26:45;;;;;;;0.20;0.20;;;;;;;5.47;100.00;99567.63;5068150;28;20561;-56
2023/12/06 01:29:13;;;;;;;0.20;0.20;;;;;;;5.46;100.00;99573.81;5072092;28;20537;-56
2023/12/06 01:31:39;;;;;;;0.20;0.20;;;;;;;5.33;100.00;99572.31;5059952;28;20494;-57
2023/12/06 01:34:06;;;;;;;0.20;0.20;;;;;;;5.44;100.00;99569.47;5071914;28;20446;-57
2023/12/06 01:36:32;;;;;;;0.20;0.20;;;;;;;5.46;100.00;99580.84;5071575;28;20466;-57
2023/12/06 01:38:59;;;;;;;0.20;0.10;;;;;;;5.51;100.00;99576.38;5072023;28;20565;-57
2023/12/06 01:41:25;;;;;;;0.20;0.10;;;;;;;5.47;100.00;99577.31;5071917;28;20560;-57
2023/12/06 01:43:52;;;;;;;0.20;0.10;;;;;;;5.54;100.00;99571.91;5067877;28;20537;-57
2023/12/06 01:46:19;;;;;;;0.20;0.10;;;;;;;5.57;100.00;99576.25;5064759;28;20453;-57
2023/12/06 01:48:47;;;;;;;0.20;0.10;;;;;;;5.58;100.00;99578.84;5061651;28;20534;-57
2023/12/06 01:51:17;;;;;;;0.20;0.20;;;;;;;5.62;100.00;99582.31;5060378;28;20459;-57
2023/12/06 01:53:44;;;;;;;0.20;0.10;;;;;;;5.72;100.00;99586.47;5071931;28;20539;-57
2023/12/06 01:56:11;;;;;;;0.20;0.10;;;;;;;5.71;100.00;99575.97;5071264;28;20457;-57
2023/12/06 01:58:38;;;;;;;0.63;0.63;;;;;;;5.89;100.00;99588.75;5071612;28;20584;-57
2023/12/06 02:01:05;;;;;;;0.20;0.10;;;;;;;5.88;100.00;99589.66;5071288;28;20450;-57
2023/12/06 02:03:33;;;;;;;0.20;0.10;;;;;;;5.85;100.00;99595.00;5071569;28;20533;-56
2023/12/06 02:06:06;;;;;;;0.20;0.13;;;;;;;5.88;100.00;99592.28;5060360;28;20454;-56
2023/12/06 02:08:35;;;;;;;0.20;0.10;;;;;;;5.79;100.00;99593.38;5071831;28;20512;-57
2023/12/06 02:11:04;;;;;;;0.20;0.20;;;;;;;5.80;100.00;99594.25;5065944;28;20462;-57
2023/12/06 02:13:30;;;;;;;0.20;0.17;;;;;;;5.72;100.00;99593.50;5062148;28;20452;-56
2023/12/06 02:15:57;;;;;;;0.20;0.20;;;;;;;5.76;100.00;99597.84;5069952;28;20548;-56
2023/12/06 02:18:25;;;;;;;0.20;0.20;;;;;;;5.64;100.00;99602.47;5071181;28;20527;-56
2023/12/06 02:20:53;;;;;;;0.20;0.20;;;;;;;5.62;100.00;99599.00;5071395;28;20454;-56
2023/12/06 02:23:24;;;;;;;0.20;0.20;;;;;;;5.60;100.00;99599.88;5059157;28;20545;-57
2023/12/06 02:25:51;;;;;;;0.20;0.10;;;;;;;5.52;100.00;99597.44;5062906;28;20453;-57
2023/12/06 02:28:17;;;;;;;0.23;0.20;;;;;;;5.62;100.00;99598.13;5067399;28;20509;-57
2023/12/06 02:30:44;;;;;;;0.20;0.20;;;;;;;5.59;100.00;99595.53;5057809;28;20468;-57
2023/12/06 02:33:10;;;;;;;0.20;0.20;;;;;;;5.62;100.00;99596.34;5071216;28;20446;-57
2023/12/06 02:35:46;;;;;;;0.20;0.20;;;;;;;5.57;100.00;99594.69;5058056;28;20464;-57
2023/12/06 02:38:16;;;;;;;0.20;0.10;;;;;;;5.55;100.00;99588.59;5065251;28;20986;-56
2023/12/06 02:40:45;;;;;;;0.20;0.20;;;;;;;5.51;100.00;99602.72;5071101;28;20542;-57
2023/12/06 02:43:15;;;;;;;0.20;0.13;;;;;;;5.58;100.00;99596.44;5071921;28;20954;-56
2023/12/06 02:45:43;;;;;;;0.20;0.13;;;;;;;5.55;100.00;99601.75;5054052;28;20910;-57
2023/12/06 02:48:09;;;;;;;0.20;0.10;;;;;;;5.50;100.00;99598.34;5067275;28;20472;-56
2023/12/06 02:50:36;;;;;;;0.20;0.20;;;;;;;5.45;100.00;99601.06;5071370;28;20598;-57
2023/12/06 02:53:03;;;;;;;0.20;0.20;;;;;;;5.46;100.00;99608.06;5067981;28;20553;-57
2023/12/06 02:55:29;;;;;;;0.20;0.17;;;;;;;5.52;100.00;99604.47;5071595;28;20547;-57
2023/12/06 02:57:56;;;;;;;0.20;0.10;;;;;;;5.45;100.00;99602.81;5070760;28;20465;-56
2023/12/06 03:00:22;;;;;;;0.20;0.20;;;;;;;5.50;100.00;99612.41;5061994;28;21021;-57
2023/12/06 03:02:49;;;;;;;0.20;0.20;;;;;;;5.47;100.00;99612.44;5070780;28;20949;-57
2023/12/06 03:05:15;;;;;;;0.20;0.10;;;;;;;5.51;100.00;99611.50;5071052;28;20462;-56
2023/12/06 03:07:42;;;;;;;0.20;0.20;;;;;;;5.50;100.00;99617.69;5070858;28;20466;-57
2023/12/06 03:10:08;;;;;;;0.20;0.20;;;;;;;5.46;100.00;99618.59;5070844;28;20870;-57
2023/12/06 03:12:35;;;;;;;0.20;0.10;;;;;;;5.45;100.00;99614.22;5070561;28;20452;-56
2023/12/06 03:15:02;;;;;;;0.20;0.20;;;;;;;5.41;100.00;99611.69;5069420;28;20556;-56
2023/12/06 03:17:28;;;;;;;0.20;0.10;;;;;;;5.39;100.00;99605.59;5074154;28;20480;-57
2023/12/06 03:19:55;;;;;;;0.20;0.10;;;;;;;5.54;100.00;99618.47;5074234;28;20489;-56
2023/12/06 03:22:21;;;;;;;0.20;0.20;;;;;;;5.49;100.00;99608.03;5070255;28;20474;-56
2023/12/06 03:24:48;;;;;;;0.20;0.20;;;;;;;5.50;100.00;99617.69;5065153;28;20460;-57
2023/12/06 03:27:14;;;;;;;0.20;0.20;;;;;;;5.58;100.00;99620.16;5067334;28;20485;-57
2023/12/06 03:29:41;;;;;;;0.20;0.20;;;;;;;5.52;100.00;99615.00;5070224;28;21001;-57
2023/12/06 03:32:07;;;;;;;0.20;0.17;;;;;;;5.62;100.00;99617.44;5071858;28;20489;-56
2023/12/06 03:34:33;;;;;;;0.20;0.20;;;;;;;5.59;100.00;99622.75;5067881;28;20836;-56
2023/12/06 03:37:02;;;;;;;0.20;0.20;;;;;;;5.53;100.00;99622.00;5072124;28;20473;-56
2023/12/06 03:39:29;;;;;;;0.20;0.10;;;;;;;5.51;100.00;99624.69;5073906;28;20490;-56
2023/12/06 03:41:55;;;;;;;0.20;0.10;;;;;;;5.48;100.00;99624.75;5073969;28;20445;-56
2023/12/06 03:44:21;;;;;;;0.20;0.20;;;;;;;5.48;100.00;99626.47;5065738;28;20482;-57
2023/12/06 03:46:49;;;;;;;0.20;0.20;;;;;;;5.56;100.00;99629.84;5060111;28;20628;-56
2023/12/06 03:49:15;;;;;;;0.20;0.20;;;;;;;5.54;100.00;99624.63;5067188;28;20448;-56
2023/12/06 03:51:42;;;;;;;0.20;0.10;;;;;;;5.54;100.00;99623.75;5065006;28;21032;-57
2023/12/06 03:54:08;;;;;;;0.20;0.20;;;;;;;5.55;100.00;99636.03;5073341;28;21006;-55
2023/12/06 03:56:35;;;;;;;0.20;0.10;;;;;;;5.53;100.00;99630.78;5067670;28;20471;-57
2023/12/06 03:59:04;;;;;;;0.20;0.20;;;;;;;5.59;100.00;99635.94;5065432;28;20445;-57
2023/12/06 04:01:31;;;;;;;0.20;0.20;;;;;;;5.55;100.00;99634.25;5073572;28;20445;-56
2023/12/06 04:03:57;;;;;;;0.20;0.10;;;;;;;5.57;100.00;99635.09;5073545;28;20446;-57
2023/12/06 04:06:24;;;;;;;0.20;0.10;;;;;;;5.51;100.00;99629.94;5066823;28;20534;-57
2023/12/06 04:08:50;;;;;;;0.20;0.10;;;;;;;5.61;100.00;99634.13;5065904;28;20446;-57
2023/12/06 04:11:16;;;;;;;0.20;0.10;;;;;;;5.63;100.00;99635.00;5066910;28;20455;-56
2023/12/06 04:13:43;;;;;;;0.20;0.20;;;;;;;5.56;100.00;99643.91;5059908;28;20449;-56
2023/12/06 04:16:09;;;;;;;0.20;0.20;;;;;;;5.63;100.00;99647.31;5063102;28;20493;-56
2023/12/06 04:18:36;;;;;;;0.20;0.20;;;;;;;5.72;100.00;99641.84;5067903;28;20458;-56
2023/12/06 04:21:05;;;;;;;0.20;0.20;;;;;;;5.76;100.00;99646.19;5059915;28;20481;-56
2023/12/06 04:23:32;;;;;;;0.20;0.10;;;;;;;5.75;100.00;99649.69;5071196;28;20496;-55
2023/12/06 04:25:58;;;;;;;0.20;0.20;;;;;;;5.78;100.00;99654.06;5067135;28;20458;-56
2023/12/06 04:28:25;;;;;;;0.20;0.20;;;;;;;5.83;100.00;99658.31;5071147;28;20509;-56
2023/12/06 04:30:51;;;;;;;0.20;0.20;;;;;;;5.97;100.00;99666.00;5073181;28;20511;-56
2023/12/06 04:33:18;;;;;;;0.20;0.20;;;;;;;5.83;100.00;99662.72;5072971;28;20999;-56
2023/12/06 04:35:44;;;;;;;0.20;0.10;;;;;;;5.85;100.00;99667.06;5072577;28;20497;-55
2023/12/06 04:38:11;;;;;;;0.20;0.20;;;;;;;5.77;100.00;99674.28;5072650;28;20466;-56
2023/12/06 04:40:37;;;;;;;0.20;0.10;;;;;;;5.57;100.00;99672.00;5073120;28;20485;-56
2023/12/06 04:43:04;;;;;;;0.20;0.20;;;;;;;5.73;100.00;99674.34;5072690;28;20457;-56
2023/12/06 04:45:32;;;;;;;0.20;0.10;;;;;;;5.60;100.00;99660.53;5063093;28;20457;-57
2023/12/06 04:47:58;;;;;;;0.20;0.20;;;;;;;5.74;100.00;99678.72;5073046;28;20897;-56
2023/12/06 04:50:25;;;;;;;0.20;0.20;;;;;;;5.62;100.00;99674.56;5072592;28;20446;-56
2023/12/06 04:52:52;;;;;;;0.20;0.10;;;;;;;5.63;100.00;99685.09;5072401;28;20814;-56
2023/12/06 04:55:18;;;;;;;0.20;0.20;;;;;;;5.67;100.00;99683.25;5072940;28;20541;-56
2023/12/06 04:57:45;;;;;;;0.20;0.10;;;;;;;5.90;100.00;99693.41;5072377;28;20466;-57
2023/12/06 05:00:12;;;;;;;0.20;0.20;;;;;;;6.12;100.00;99697.34;5072306;28;20909;-56
2023/12/06 05:02:38;;;;;;;0.20;0.10;;;;;;;6.27;100.00;99703.22;5072270;28;20454;-56
2023/12/06 05:05:05;;;;;;;0.30;0.20;;;;;;;6.20;100.00;99702.47;5072315;28;20453;-57
2023/12/06 05:07:32;;;;;;;0.20;0.20;;;;;;;6.09;100.00;99707.09;5072294;28;20476;-56
2023/12/06 05:09:58;;;;;;;3.03;2.83;;;;;;;6.08;100.00;99710.63;5072443;28;20446;-57
2023/12/06 05:12:25;;;;;;;0.27;0.20;;;;;;;6.11;100.00;99714.06;5072244;28;20453;-57
2023/12/06 05:14:51;;;;;;;0.20;0.20;;;;;;;6.05;100.00;99721.25;5068832;28;20450;-56
2023/12/06 05:17:18;;;;;;;0.20;0.10;;;;;;;6.07;100.00;99719.47;5072085;28;20466;-57
2023/12/06 05:19:44;;;;;;;0.20;0.20;;;;;;;5.96;100.00;99722.28;5072161;28;20481;-56
2023/12/06 05:22:11;;;;;;;0.20;0.20;;;;;;;5.91;100.00;99724.16;5068927;28;20455;-57
2023/12/06 05:24:38;;;;;;;0.20;0.20;;;;;;;5.87;100.00;99718.00;5062142;28;20488;-57
2023/12/06 05:27:04;;;;;;;0.20;0.10;;;;;;;5.88;100.00;99730.31;5068114;28;20474;-56
2023/12/06 05:29:32;;;;;;;0.20;0.10;;;;;;;5.85;100.00;99735.63;5071974;28;20452;-57
2023/12/06 05:31:58;;;;;;;0.20;0.20;;;;;;;5.86;100.00;99736.50;5071674;28;20466;-57
2023/12/06 05:34:25;;;;;;;0.20;0.10;;;;;;;5.80;100.00;99741.91;5071975;28;20457;-57
2023/12/06 05:36:51;;;;;;;0.30;0.10;;;;;;;5.74;100.00;99748.16;5071178;28;20872;-57
2023/12/06 05:39:18;;;;;;;0.20;0.10;;;;;;;5.76;100.00;99748.16;5071880;28;20454;-57
2023/12/06 05:41:44;;;;;;;0.20;0.10;;;;;;;5.70;100.00;99749.09;5071809;28;20453;-57
2023/12/06 05:44:11;;;;;;;0.20;0.20;;;;;;;5.66;100.00;99750.06;5064958;28;21138;-55
2023/12/06 05:46:37;;;;;;;0.20;0.20;;;;;;;5.91;100.00;99743.50;5069172;28;20982;-55
2023/12/06 05:49:04;;;;;;;0.20;0.13;;;;;;;5.76;100.00;99746.38;5071631;28;20450;-55
2023/12/06 05:51:30;;;;;;;0.20;0.10;;;;;;;5.69;100.00;99752.63;5071483;28;20927;-55
2023/12/06 05:53:57;;;;;;;0.20;0.20;;;;;;;5.68;100.00;99755.31;5071871;28;20537;-55
2023/12/06 05:56:23;;;;;;;0.20;0.10;;;;;;;5.64;100.00;99754.50;5071459;28;20537;-55
2023/12/06 05:58:50;;;;;;;0.20;0.10;;;;;;;5.83;100.00;99755.03;5071501;28;20969;-55
2023/12/06 06:01:16;;;;;;;0.20;0.20;;;;;;;5.71;100.00;99765.78;5071228;28;20982;-55
2023/12/06 06:03:43;;;;;;;0.20;0.17;;;;;;;5.49;100.00;99773.22;5071770;28;20449;-54
2023/12/06 06:06:10;;;;;;;0.20;0.10;;;;;;;5.65;100.00;99775.56;5071419;28;20446;-55
2023/12/06 06:08:36;;;;;;;0.20;0.10;;;;;;;5.58;100.00;99768.63;5071466;28;20450;-56
2023/12/06 06:11:04;;;;;;;0.20;0.10;;;;;;;5.62;100.00;99770.34;5066735;28;20454;-55
2023/12/06 06:13:31;;;;;;;0.20;0.20;;;;;;;5.65;100.00;99778.19;5061999;28;20492;-56
2023/12/06 06:15:58;;;;;;;0.20;0.10;;;;;;;5.50;100.00;99773.19;5069262;28;20893;-56
2023/12/06 06:18:24;;;;;;;0.20;0.10;;;;;;;5.60;100.00;99779.16;5071453;28;20462;-55
2023/12/06 06:20:51;;;;;;;0.20;0.20;;;;;;;5.44;100.00;99783.81;5071246;28;20494;-55
2023/12/06 06:23:18;;;;;;;0.20;0.20;;;;;;;5.52;100.00;99781.94;5057885;28;20865;-55
2023/12/06 06:25:44;;;;;;;0.20;0.10;;;;;;;5.52;100.00;99787.19;5070129;28;20443;-56
2023/12/06 06:28:11;;;;;;;0.20;0.20;;;;;;;5.38;100.00;99785.69;5067083;28;20481;-56
2023/12/06 06:30:38;;;;;;;0.20;0.20;;;;;;;5.34;100.00;99784.84;5070898;28;20453;-55
2023/12/06 06:33:04;;;;;;;0.20;0.10;;;;;;;5.29;100.00;99781.41;5071170;28;20941;-55
2023/12/06 06:35:31;;;;;;;0.20;0.20;;;;;;;5.35;100.00;99797.16;5071144;28;20450;-56
2023/12/06 06:37:58;;;;;;;0.20;0.20;;;;;;;5.39;99.62;99796.19;5071126;28;20469;-56
2023/12/06 06:40:24;;;;;;;0.20;0.10;;;;;;;5.49;100.00;99805.72;5070955;28;20490;-56
2023/12/06 06:42:51;;;;;;;0.20;0.10;;;;;;;5.60;99.72;99816.94;5071081;28;20453;-56
2023/12/06 06:45:18;;;;;;;0.20;0.20;;;;;;;5.48;98.45;99813.63;5061535;28;20456;-55
2023/12/06 06:47:44;;;;;;;0.20;0.20;;;;;;;5.38;98.53;99812.03;5070672;28;20822;-55
2023/12/06 06:50:12;;;;;;;0.20;0.10;;;;;;;5.30;97.74;99820.91;5075133;28;20450;-55
2023/12/06 06:52:39;;;;;;;0.20;0.10;;;;;;;5.56;98.20;99825.78;5074794;28;20497;-55
2023/12/06 06:55:07;;;;;;;0.20;0.13;;;;;;;5.33;98.02;99823.50;5074843;28;20452;-55
2023/12/06 06:57:34;;;;;;;0.20;0.20;;;;;;;5.42;98.87;99827.78;5061085;28;20493;-55
2023/12/06 07:00:00;;;;;;;0.20;0.10;;;;;;;5.32;98.18;99840.19;5074697;28;20511;-55
2023/12/06 07:02:27;;;;;;;0.20;0.10;;;;;;;5.35;98.87;99836.69;5074662;28;20446;-54
2023/12/06 07:04:55;;;;;;;0.20;0.10;;;;;;;5.34;98.80;99838.44;5074659;28;20507;-55
2023/12/06 07:07:21;;;;;;;0.20;0.10;;;;;;;5.39;98.44;99841.00;5073803;28;20556;-55
2023/12/06 07:09:49;;;;;;;0.20;0.10;;;;;;;5.43;97.85;99845.31;5062214;28;20454;-55
2023/12/06 07:12:16;;;;;;;0.20;0.20;;;;;;;5.31;98.66;99849.00;5074122;28;20982;-54
2023/12/06 07:14:42;;;;;;;0.20;0.10;;;;;;;5.44;98.27;99848.81;5069979;28;20449;-55
2023/12/06 07:17:09;;;;;;;0.20;0.10;;;;;;;5.39;98.67;99861.22;5074197;28;21012;-54
2023/12/06 07:19:35;;;;;;;0.20;0.20;;;;;;;5.46;98.77;99866.34;5074532;28;20532;-55
2023/12/06 07:22:02;;;;;;;0.20;0.10;;;;;;;5.48;98.73;99861.06;5072537;28;20485;-55
2023/12/06 07:24:29;;;;;;;0.20;0.10;;;;;;;5.38;98.80;99865.63;5062660;28;20453;-55
2023/12/06 07:26:55;;;;;;;0.20;0.20;;;;;;;5.46;98.95;99882.16;5070286;28;21003;-54
2023/12/06 07:29:22;;;;;;;0.20;0.10;;;;;;;5.42;99.19;99877.84;5065472;28;20451;-54
2023/12/06 07:31:50;;;;;;;0.30;0.20;;;;;;;5.46;98.76;99884.81;5069585;28;20507;-55
2023/12/06 07:34:17;;;;;;;0.20;0.10;;;;;;;5.45;98.94;99882.19;5074180;28;20461;-55
2023/12/06 07:36:49;;;;;;;0.20;0.10;;;;;;;5.46;99.45;99891.84;5073752;28;20469;-54
2023/12/06 07:39:15;;;;;;;0.20;0.20;;;;;;;5.42;100.00;99893.66;5073823;28;20450;-54
2023/12/06 07:41:42;;;;;;;0.20;0.20;;;;;;;5.46;99.24;99895.34;5073795;28;20496;-55
2023/12/06 07:44:08;;;;;;;0.20;0.13;;;;;;;5.31;99.57;99895.56;5067751;28;20455;-55
2023/12/06 07:46:35;;;;;;;0.20;0.10;;;;;;;5.46;99.70;99908.53;5069953;28;20548;-54
2023/12/06 07:49:01;;;;;;;0.20;0.20;;;;;;;5.32;100.00;99911.34;5073816;28;20563;-55
2023/12/06 07:51:28;;;;;;;0.20;0.10;;;;;;;5.37;99.89;99911.31;5073654;28;20935;-55
2023/12/06 07:53:56;;;;;;;0.20;0.10;;;;;;;5.32;99.57;99921.03;5073652;28;20450;-54
2023/12/06 07:56:23;;;;;;;0.20;0.20;;;;;;;5.46;98.90;99926.97;5072507;28;20873;-55
2023/12/06 07:58:56;;;;;;;0.20;0.10;;;;;;;5.50;98.78;99927.81;5073736;28;20446;-54
2023/12/06 08:01:24;;;;;;;0.20;0.20;;;;;;;5.42;98.21;99922.66;5073225;28;20502;-56
2023/12/06 08:03:51;;;;;;;0.20;0.20;;;;;;;5.33;98.65;99930.66;5073684;28;20450;-55
2023/12/06 08:06:18;;;;;;;0.20;0.10;;;;;;;5.33;99.18;99936.81;5073262;28;20456;-56
2023/12/06 08:08:44;;;;;;;0.20;0.20;;;;;;;5.38;98.74;99946.44;5073445;28;20966;-55
2023/12/06 08:11:11;;;;;;;0.20;0.20;;;;;;;5.36;99.09;99946.47;5073310;28;20560;-56
2023/12/06 08:13:37;;;;;;;0.20;0.20;;;;;;;5.28;99.71;99943.03;5071103;28;20874;-56
2023/12/06 08:16:04;;;;;;;0.20;0.10;;;;;;;5.34;99.68;99940.31;5072127;28;20490;-55
2023/12/06 08:18:31;;;;;;;0.20;0.10;;;;;;;5.55;97.31;99944.44;5073185;28;20480;-55
2023/12/06 08:20:58;;;;;;;0.20;0.20;;;;;;;5.41;98.47;99944.63;5072894;28;20481;-55
2023/12/06 08:23:24;;;;;;;0.20;0.10;;;;;;;5.38;98.27;99951.72;5060482;28;20457;-55
2023/12/06 08:25:51;;;;;;;0.20;0.20;;;;;;;5.67;96.75;99953.94;5073091;28;20474;-55
2023/12/06 08:28:17;;;;;;;0.20;0.10;;;;;;;5.62;96.39;99959.28;5069216;28;20640;-55
2023/12/06 08:30:44;;;;;;;0.40;0.40;;;;;;;5.63;96.72;99961.03;5059654;28;20526;-56
2023/12/06 08:33:13;;;;;;;0.20;0.20;;;;;;;5.57;97.31;99954.06;5072914;28;20445;-55
2023/12/06 08:35:41;;;;;;;0.20;0.10;;;;;;;5.59;95.57;99962.81;5072929;28;20465;-56
2023/12/06 08:38:07;;;;;;;0.20;0.10;;;;;;;5.57;96.53;99954.06;5072901;28;20555;-56
2023/12/06 08:40:33;;;;;;;0.30;0.20;;;;;;;5.65;96.12;99960.13;5072882;28;20584;-55
2023/12/06 08:43:00;;;;;;;0.20;0.10;;;;;;;5.70;96.80;99959.16;5073818;28;20523;-56
2023/12/06 08:45:26;;;;;;;0.20;0.17;;;;;;;5.71;95.84;99961.78;5064051;28;20442;-56
2023/12/06 08:47:53;;;;;;;0.20;0.10;;;;;;;5.68;95.97;99966.22;5072423;28;20466;-56
2023/12/06 08:50:19;;;;;;;0.20;0.10;;;;;;;5.67;96.01;99961.84;5072633;28;20448;-56
2023/12/06 08:52:46;;;;;;;0.20;0.20;;;;;;;5.55;96.12;99971.66;5072419;28;21000;-54
2023/12/06 08:55:13;;;;;;;0.20;0.20;;;;;;;5.53;96.58;99973.47;5072873;28;20446;-56
2023/12/06 08:57:40;;;;;;;0.20;0.20;;;;;;;5.67;96.57;99975.91;5072345;28;20527;-55
2023/12/06 09:00:11;;;;;;;0.20;0.10;;;;;;;5.67;96.30;99977.69;5072535;28;20446;-56
2023/12/06 09:02:40;;;;;;;0.20;0.10;;;;;;;5.82;96.05;99990.66;5072144;28;20852;-56
2023/12/06 09:05:10;;;;;;;0.20;0.20;;;;;;;5.74;95.19;99995.13;5072446;28;20453;-56
2023/12/06 09:07:36;;;;;;;0.30;0.20;;;;;;;5.73;96.06;99996.91;5072288;28;20477;-56
2023/12/06 09:10:03;;;;;;;0.20;0.10;;;;;;;5.82;95.14;99982.72;5072225;28;20938;-56
2023/12/06 09:12:31;;;;;;;0.20;0.10;;;;;;;5.86;95.55;99992.34;5071639;28;20940;-56
2023/12/06 09:14:57;;;;;;;0.20;0.10;;;;;;;5.81;94.97;99995.03;5069379;28;20452;-56
2023/12/06 09:17:23;;;;;;;0.30;0.10;;;;;;;5.85;94.65;100001.16;5071830;28;21066;-56
2023/12/06 09:19:51;;;;;;;0.20;0.20;;;;;;;5.70;94.93;100001.34;5071639;28;20954;-56
2023/12/06 09:22:20;;;;;;;0.20;0.20;;;;;;;5.65;95.24;100004.06;5067742;28;20495;-56
2023/12/06 09:24:48;;;;;;;0.20;0.10;;;;;;;5.60;95.13;100008.50;5061785;28;20445;-55
2023/12/06 09:27:15;;;;;;;0.20;0.10;;;;;;;5.63;95.26;100013.75;5066729;28;20569;-54
2023/12/06 09:29:45;;;;;;;0.20;0.20;;;;;;;5.58;96.44;100015.56;5071810;28;20450;-55
2023/12/06 09:32:12;;;;;;;0.20;0.10;;;;;;;5.56;95.59;100012.97;5072106;28;20453;-55
2023/12/06 09:34:40;;;;;;;0.20;0.10;;;;;;;5.60;95.71;100019.91;5072031;28;20484;-56
2023/12/06 09:37:09;;;;;;;0.20;0.20;;;;;;;5.78;94.86;100020.59;5071761;28;20566;-56
2023/12/06 09:39:36;;;;;;;0.20;0.10;;;;;;;5.78;95.75;100025.88;5059155;28;20463;-55
2023/12/06 09:42:03;;;;;;;0.20;0.20;;;;;;;6.02;95.41;100030.81;5053259;28;20513;-55
2023/12/06 09:44:31;;;;;;;0.30;0.20;;;;;;;5.96;95.48;100041.47;5061252;28;20839;-55
2023/12/06 09:46:59;;;;;;;0.20;0.20;;;;;;;6.05;95.82;100027.28;5058413;28;20476;-56
2023/12/06 09:49:25;;;;;;;0.20;0.20;;;;;;;6.04;94.64;100029.06;5071626;28;20450;-55
2023/12/06 09:51:58;;;;;;;0.20;0.10;;;;;;;5.96;94.69;100030.03;5071683;28;20448;-56
2023/12/06 09:54:25;;;;;;;0.30;0.10;;;;;;;5.91;95.18;100035.41;5058144;28;20498;-55
2023/12/06 09:56:52;;;;;;;0.20;0.20;;;;;;;6.02;94.72;100041.38;5071375;28;20579;-56
2023/12/06 09:59:18;;;;;;;0.20;0.10;;;;;;;6.04;94.51;100044.00;5071577;28;20452;-56
2023/12/06 10:01:45;;;;;;;0.20;0.17;;;;;;;5.95;95.21;100045.00;5071273;28;20489;-55
2023/12/06 10:04:11;;;;;;;0.20;0.20;;;;;;;5.91;94.91;100043.31;5071469;28;20542;-55
2023/12/06 10:06:39;;;;;;;0.20;0.10;;;;;;;5.98;95.22;100044.97;5071543;28;20465;-55
2023/12/06 10:09:10;;;;;;;0.30;0.20;;;;;;;6.00;94.34;100052.84;5071316;28;20449;-55
2023/12/06 10:11:36;;;;;;;0.20;0.10;;;;;;;5.91;94.97;100059.13;5071701;28;20446;-55
2023/12/06 10:14:03;;;;;;;0.30;0.20;;;;;;;5.94;94.36;100062.59;5068211;28;20873;-55
2023/12/06 10:16:29;;;;;;;0.20;0.20;;;;;;;5.98;94.32;100068.69;5071434;28;20531;-56
2023/12/06 10:18:56;;;;;;;0.20;0.10;;;;;;;5.99;95.39;100064.28;5071428;28;20446;-56
2023/12/06 10:21:23;;;;;;;0.80;0.77;;;;;;;5.96;94.82;100067.84;5071342;28;20489;-56
2023/12/06 10:23:55;;;;;;;0.20;0.20;;;;;;;6.02;94.68;100061.59;5060756;28;20540;-56
2023/12/06 10:26:22;;;;;;;0.20;0.10;;;;;;;5.99;95.17;100053.75;5074466;28;20469;-56
2023/12/06 10:28:48;;;;;;;0.20;0.20;;;;;;;6.19;94.40;100057.84;5072613;28;20460;-56
2023/12/06 10:31:15;;;;;;;0.20;0.10;;;;;;;6.14;94.61;100057.03;5075392;28;20453;-56
2023/12/06 10:33:42;;;;;;;0.30;0.20;;;;;;;6.14;94.94;100061.44;5075649;28;20453;-57
2023/12/06 10:36:10;;;;;;;0.20;0.20;;;;;;;6.22;94.83;100065.72;5075109;28;20453;-55
2023/12/06 10:38:37;;;;;;;0.20;0.10;;;;;;;6.07;94.16;100065.94;5075238;28;20873;-56
2023/12/06 10:41:05;;;;;;;0.30;0.20;;;;;;;6.18;95.13;100073.72;5075174;28;20497;-56
2023/12/06 10:43:32;;;;;;;0.30;0.20;;;;;;;6.21;95.16;100071.91;5073657;28;20449;-55
2023/12/06 10:45:59;;;;;;;0.30;0.20;;;;;;;6.24;95.29;100057.78;5066470;28;20897;-56
2023/12/06 10:48:29;;;;;;;0.30;0.20;;;;;;;6.28;95.28;100069.16;5074757;28;20462;-56
2023/12/06 10:50:57;;;;;;;0.20;0.20;;;;;;;6.46;95.03;100060.97;5074802;28;20438;-57
2023/12/06 10:53:24;;;;;;;0.30;0.20;;;;;;;6.59;94.30;100062.53;5074863;28;20456;-56
2023/12/06 10:55:50;;;;;;;1.50;1.40;;;;;;;6.37;94.16;100063.75;5074873;28;20995;-56
2023/12/06 10:58:17;;;;;;;0.30;0.20;;;;;;;6.46;93.97;100058.34;5074516;28;20480;-56
2023/12/06 11:00:45;;;;;;;0.30;0.10;;;;;;;6.44;94.12;100060.09;5074673;28;20457;-56
2023/12/06 11:03:11;;;;;;;0.20;0.10;;;;;;;6.42;94.07;100064.53;5074406;28;20465;-56
2023/12/06 11:05:47;;;;;;;0.50;0.50;;;;;;;6.42;93.84;100061.91;5074388;28;20969;-56
2023/12/06 11:08:46;;;;;;;0.30;0.20;;;;;;;6.50;93.86;100063.53;5074620;28;20469;-56
2023/12/06 11:11:31;;;;;;;0.20;0.20;;;;;;;6.59;94.02;100062.53;5074483;28;20453;-57
2023/12/06 11:14:05;;;;;;;0.20;0.10;;;;;;;6.60;92.60;100066.03;5070886;28;21019;-57
2023/12/06 11:16:51;;;;;;;0.20;0.20;;;;;;;6.59;93.14;100067.81;5074527;28;20465;-57
2023/12/06 11:19:18;;;;;;;0.23;0.20;;;;;;;6.70;93.20;100062.31;5074573;28;20441;-56
2023/12/06 11:21:45;;;;;;;0.30;0.17;;;;;;;6.61;93.03;100055.44;5074500;28;20982;-55
2023/12/06 11:24:11;;;;;;;0.23;0.20;;;;;;;6.56;93.19;100067.84;5060670;28;20456;-56
2023/12/06 11:26:38;;;;;;;0.30;0.10;;;;;;;6.59;92.83;100067.81;5070981;28;20475;-57
2023/12/06 11:29:06;;;;;;;0.30;0.20;;;;;;;6.72;93.33;100073.78;5073634;28;20548;-56
2023/12/06 11:31:36;;;;;;;0.30;0.20;;;;;;;6.88;93.19;100071.75;5074110;28;20461;-57
2023/12/06 11:34:05;;;;;;;0.20;0.20;;;;;;;6.65;93.22;100072.09;5060306;28;20805;-56